sensor_id;sensor_type;location;lat;lon;timestamp;pressure;altitude;pressure_sealevel;temperature;humidity
70133;BME280;57495;49.922;7.966;2023-08-30T00:01:20;99208.59;;;16.22;100.00
70133;BME280;57495;49.922;7.966;2023-08-30T00:03:21;99216.31;;;16.26;100.00
70133;BME280;57495;49.922;7.966;2023-08-30T00:05:23;99206.97;;;16.28;100.00
70133;BME280;57495;49.922;7.966;2023-08-30T00:07:24;99207.78;;;16.22;100.00
70133;BME280;57495;49.922;7.966;2023-08-30T00:09:25;99207.38;;;16.25;100.00
70133;BME280;57495;49.922;7.966;2023-08-30T00:11:26;99204.69;;;16.25;100.00
70133;BME280;57495;49.922;7.966;2023-08-30T00:13:30;99209.66;;;16.28;100.00
70133;BME280;57495;49.922;7.966;2023-08-30T00:15:33;99199.91;;;16.27;100.00
70133;BME280;57495;49.922;7.966;2023-08-30T00:17:34;99198.03;;;16.28;100.00
70133;BME280;57495;49.922;7.966;2023-08-30T00:19:35;99197.19;;;16.20;100.00
70133;BME280;57495;49.922;7.966;2023-08-30T00:21:37;99193.25;;;16.23;100.00
70133;BME280;57495;49.922;7.966;2023-08-30T00:23:38;99186.59;;;16.19;100.00
70133;BME280;57495;49.922;7.966;2023-08-30T00:25:39;99193.41;;;16.15;100.00
70133;BME280;57495;49.922;7.966;2023-08-30T00:27:40;99194.88;;;16.17;100.00
70133;BME280;57495;49.922;7.966;2023-08-30T00:29:42;99196.34;;;16.20;100.00
70133;BME280;57495;49.922;7.966;2023-08-30T00:31:44;99191.59;;;16.22;100.00
70133;BME280;57495;49.922;7.966;2023-08-30T00:33:46;99196.97;;;16.22;100.00
70133;BME280;57495;49.922;7.966;2023-08-30T00:35:46;99192.19;;;16.17;100.00
70133;BME280;57495;49.922;7.966;2023-08-30T00:37:48;99189.09;;;16.20;100.00
70133;BME280;57495;49.922;7.966;2023-08-30T00:39:49;99181.59;;;16.16;100.00
70133;BME280;57495;49.922;7.966;2023-08-30T00:41:50;99189.47;;;16.11;100.00
70133;BME280;57495;49.922;7.966;2023-08-30T00:43:52;99179.88;;;16.01;100.00
70133;BME280;57495;49.922;7.966;2023-08-30T00:45:52;99181.16;;;16.12;100.00
70133;BME280;57495;49.922;7.966;2023-08-30T00:47:55;99178.66;;;16.11;100.00
70133;BME280;57495;49.922;7.966;2023-08-30T00:49:57;99182.38;;;16.10;100.00
70133;BME280;57495;49.922;7.966;2023-08-30T00:51:59;99178.63;;;16.04;100.00
70133;BME280;57495;49.922;7.966;2023-08-30T00:54:02;99178.66;;;16.11;100.00
70133;BME280;57495;49.922;7.966;2023-08-30T00:56:04;99183.66;;;16.14;100.00
70133;BME280;57495;49.922;7.966;2023-08-30T00:58:07;99181.56;;;16.09;100.00
70133;BME280;57495;49.922;7.966;2023-08-30T01:00:09;99179.25;;;16.06;100.00
70133;BME280;57495;49.922;7.966;2023-08-30T01:02:11;99174.91;;;16.12;100.00
70133;BME280;57495;49.922;7.966;2023-08-30T01:04:13;99177.00;;;16.10;100.00
70133;BME280;57495;49.922;7.966;2023-08-30T01:06:15;99172.78;;;16.00;100.00
70133;BME280;57495;49.922;7.966;2023-08-30T01:08:16;99168.66;;;16.04;100.00
70133;BME280;57495;49.922;7.966;2023-08-30T01:10:18;99165.34;;;16.02;100.00
70133;BME280;57495;49.922;7.966;2023-08-30T01:12:24;99172.25;;;15.77;100.00
70133;BME280;57495;49.922;7.966;2023-08-30T01:14:34;99169.03;;;15.95;100.00
70133;BME280;57495;49.922;7.966;2023-08-30T01:16:39;99164.69;;;16.00;100.00
70133;BME280;57495;49.922;7.966;2023-08-30T01:18:41;99163.06;;;15.99;100.00
70133;BME280;57495;49.922;7.966;2023-08-30T01:20:45;99164.06;;;15.98;100.00
70133;BME280;57495;49.922;7.966;2023-08-30T01:22:55;99154.97;;;15.99;100.00
70133;BME280;57495;49.922;7.966;2023-08-30T01:25:09;99154.22;;;15.84;100.00
70133;BME280;57495;49.922;7.966;2023-08-30T01:27:16;99148.81;;;15.77;100.00
70133;BME280;57495;49.922;7.966;2023-08-30T01:29:18;99156.16;;;15.90;100.00
70133;BME280;57495;49.922;7.966;2023-08-30T01:31:21;99156.09;;;15.77;100.00
70133;BME280;57495;49.922;7.966;2023-08-30T01:33:24;99159.78;;;15.76;100.00
70133;BME280;57495;49.922;7.966;2023-08-30T01:35:26;99158.56;;;15.50;100.00
70133;BME280;57495;49.922;7.966;2023-08-30T01:37:32;99159.28;;;15.65;100.00
70133;BME280;57495;49.922;7.966;2023-08-30T01:39:36;99166.22;;;15.75;100.00
70133;BME280;57495;49.922;7.966;2023-08-30T01:41:38;99161.88;;;15.74;100.00
70133;BME280;57495;49.922;7.966;2023-08-30T01:43:41;99160.25;;;15.79;100.00
70133;BME280;57495;49.922;7.966;2023-08-30T01:45:43;99165.44;;;15.81;100.00
70133;BME280;57495;49.922;7.966;2023-08-30T01:47:46;99163.69;;;15.73;100.00
70133;BME280;57495;49.922;7.966;2023-08-30T01:49:46;99160.03;;;15.81;100.00
70133;BME280;57495;49.922;7.966;2023-08-30T01:51:49;99159.41;;;15.79;100.00
70133;BME280;57495;49.922;7.966;2023-08-30T01:53:52;99153.59;;;15.75;100.00
70133;BME280;57495;49.922;7.966;2023-08-30T01:55:54;99148.38;;;15.74;100.00
70133;BME280;57495;49.922;7.966;2023-08-30T01:57:55;99138.84;;;15.78;100.00
70133;BME280;57495;49.922;7.966;2023-08-30T01:59:58;99147.13;;;15.76;100.00
70133;BME280;57495;49.922;7.966;2023-08-30T02:01:59;99144.38;;;15.70;100.00
70133;BME280;57495;49.922;7.966;2023-08-30T02:04:01;99146.47;;;15.68;100.00
70133;BME280;57495;49.922;7.966;2023-08-30T02:06:06;99151.91;;;15.74;100.00
70133;BME280;57495;49.922;7.966;2023-08-30T02:08:13;99145.31;;;15.77;100.00
70133;BME280;57495;49.922;7.966;2023-08-30T02:10:20;99146.94;;;15.78;100.00
70133;BME280;57495;49.922;7.966;2023-08-30T02:12:22;99145.41;;;15.69;100.00
70133;BME280;57495;49.922;7.966;2023-08-30T02:14:26;99149.78;;;15.70;100.00
70133;BME280;57495;49.922;7.966;2023-08-30T02:16:30;99146.69;;;15.73;100.00
70133;BME280;57495;49.922;7.966;2023-08-30T02:18:32;99151.44;;;15.71;100.00
70133;BME280;57495;49.922;7.966;2023-08-30T02:20:34;99140.63;;;15.64;100.00
70133;BME280;57495;49.922;7.966;2023-08-30T02:22:36;99138.13;;;15.62;100.00
70133;BME280;57495;49.922;7.966;2023-08-30T02:24:36;99141.44;;;15.64;100.00
70133;BME280;57495;49.922;7.966;2023-08-30T02:26:38;99138.50;;;15.59;100.00
70133;BME280;57495;49.922;7.966;2023-08-30T02:28:39;99136.44;;;15.61;100.00
70133;BME280;57495;49.922;7.966;2023-08-30T02:30:40;99132.50;;;15.57;100.00
70133;BME280;57495;49.922;7.966;2023-08-30T02:32:43;99131.84;;;15.55;100.00
70133;BME280;57495;49.922;7.966;2023-08-30T02:34:45;99132.03;;;15.54;100.00
70133;BME280;57495;49.922;7.966;2023-08-30T02:36:46;99133.78;;;15.33;100.00
70133;BME280;57495;49.922;7.966;2023-08-30T02:38:48;99136.03;;;15.08;100.00
70133;BME280;57495;49.922;7.966;2023-08-30T02:40:48;99144.34;;;15.06;100.00
70133;BME280;57495;49.922;7.966;2023-08-30T02:42:49;99141.69;;;14.92;100.00
70133;BME280;57495;49.922;7.966;2023-08-30T02:44:51;99131.81;;;14.99;100.00
70133;BME280;57495;49.922;7.966;2023-08-30T02:46:52;99135.28;;;15.14;100.00
70133;BME280;57495;49.922;7.966;2023-08-30T02:48:55;99137.44;;;15.25;100.00
70133;BME280;57495;49.922;7.966;2023-08-30T02:50:56;99132.81;;;15.19;100.00
70133;BME280;57495;49.922;7.966;2023-08-30T02:52:57;99140.13;;;15.25;100.00
70133;BME280;57495;49.922;7.966;2023-08-30T02:54:59;99149.09;;;15.33;100.00
70133;BME280;57495;49.922;7.966;2023-08-30T02:57:00;99142.28;;;15.37;100.00
70133;BME280;57495;49.922;7.966;2023-08-30T02:59:02;99145.78;;;15.31;100.00
70133;BME280;57495;49.922;7.966;2023-08-30T03:01:03;99140.41;;;15.31;100.00
70133;BME280;57495;49.922;7.966;2023-08-30T03:03:04;99139.38;;;15.10;100.00
70133;BME280;57495;49.922;7.966;2023-08-30T03:05:07;99133.94;;;15.03;100.00
70133;BME280;57495;49.922;7.966;2023-08-30T03:07:08;99133.22;;;15.16;100.00
70133;BME280;57495;49.922;7.966;2023-08-30T03:09:10;99132.81;;;15.19;100.00
70133;BME280;57495;49.922;7.966;2023-08-30T03:11:12;99134.44;;;15.14;100.00
70133;BME280;57495;49.922;7.966;2023-08-30T03:13:14;99136.56;;;15.18;100.00
70133;BME280;57495;49.922;7.966;2023-08-30T03:15:14;99141.31;;;15.16;100.00
70133;BME280;57495;49.922;7.966;2023-08-30T03:17:16;99138.19;;;15.19;100.00
70133;BME280;57495;49.922;7.966;2023-08-30T03:19:17;99144.09;;;15.30;100.00
70133;BME280;57495;49.922;7.966;2023-08-30T03:21:20;99138.28;;;15.26;100.00
70133;BME280;57495;49.922;7.966;2023-08-30T03:23:21;99133.56;;;15.35;100.00
70133;BME280;57495;49.922;7.966;2023-08-30T03:25:23;99130.47;;;15.38;100.00
70133;BME280;57495;49.922;7.966;2023-08-30T03:27:24;99137.44;;;15.25;100.00
70133;BME280;57495;49.922;7.966;2023-08-30T03:29:25;99133.97;;;15.32;100.00
70133;BME280;57495;49.922;7.966;2023-08-30T03:31:26;99135.38;;;15.27;100.00
70133;BME280;57495;49.922;7.966;2023-08-30T03:33:28;99139.97;;;15.34;100.00
70133;BME280;57495;49.922;7.966;2023-08-30T03:35:28;99137.91;;;15.36;100.00
70133;BME280;57495;49.922;7.966;2023-08-30T03:37:31;99139.16;;;15.33;100.00
70133;BME280;57495;49.922;7.966;2023-08-30T03:39:32;99142.69;;;15.34;100.00
70133;BME280;57495;49.922;7.966;2023-08-30T03:41:34;99136.28;;;15.35;100.00
70133;BME280;57495;49.922;7.966;2023-08-30T03:43:35;99129.63;;;15.31;100.00
70133;BME280;57495;49.922;7.966;2023-08-30T03:45:36;99136.59;;;15.25;100.00
70133;BME280;57495;49.922;7.966;2023-08-30T03:47:37;99142.84;;;15.25;100.00
70133;BME280;57495;49.922;7.966;2023-08-30T03:49:39;99134.25;;;15.15;100.00
70133;BME280;57495;49.922;7.966;2023-08-30T03:51:40;99133.31;;;15.01;100.00
70133;BME280;57495;49.922;7.966;2023-08-30T03:53:43;99131.88;;;15.05;100.00
70133;BME280;57495;49.922;7.966;2023-08-30T03:55:45;99132.34;;;15.09;100.00
70133;BME280;57495;49.922;7.966;2023-08-30T03:57:46;99139.38;;;15.10;100.00
70133;BME280;57495;49.922;7.966;2023-08-30T03:59:48;99141.31;;;14.95;100.00
70133;BME280;57495;49.922;7.966;2023-08-30T04:01:49;99141.31;;;14.95;100.00
70133;BME280;57495;49.922;7.966;2023-08-30T04:03:50;99141.56;;;15.00;100.00
70133;BME280;57495;49.922;7.966;2023-08-30T04:05:54;99131.81;;;14.99;100.00
70133;BME280;57495;49.922;7.966;2023-08-30T04:07:55;99135.56;;;14.98;100.00
70133;BME280;57495;49.922;7.966;2023-08-30T04:09:58;99135.94;;;14.95;100.00
70133;BME280;57495;49.922;7.966;2023-08-30T04:12:02;99140.66;;;14.71;100.00
70133;BME280;57495;49.922;7.966;2023-08-30T04:14:05;99133.50;;;14.78;100.00
70133;BME280;57495;49.922;7.966;2023-08-30T04:16:06;99133.09;;;14.60;100.00
70133;BME280;57495;49.922;7.966;2023-08-30T04:18:08;99127.91;;;14.43;100.00
70133;BME280;57495;49.922;7.966;2023-08-30T04:20:10;99131.19;;;14.39;100.00
70133;BME280;57495;49.922;7.966;2023-08-30T04:22:11;99123.69;;;14.34;100.00
70133;BME280;57495;49.922;7.966;2023-08-30T04:24:13;99125.66;;;14.25;100.00
70133;BME280;57495;49.922;7.966;2023-08-30T04:26:16;99127.34;;;14.11;100.00
70133;BME280;57495;49.922;7.966;2023-08-30T04:28:17;99127.72;;;14.23;100.00
70133;BME280;57495;49.922;7.966;2023-08-30T04:30:18;99122.72;;;14.05;100.00
70133;BME280;57495;49.922;7.966;2023-08-30T04:32:20;99124.59;;;13.90;100.00
70133;BME280;57495;49.922;7.966;2023-08-30T04:34:21;99126.09;;;13.78;100.00
70133;BME280;57495;49.922;7.966;2023-08-30T04:36:23;99125.72;;;13.66;100.00
70133;BME280;57495;49.922;7.966;2023-08-30T04:38:24;99125.50;;;13.82;100.00
70133;BME280;57495;49.922;7.966;2023-08-30T04:40:25;99125.44;;;13.76;100.00
70133;BME280;57495;49.922;7.966;2023-08-30T04:42:27;99127.84;;;13.70;100.00
70133;BME280;57495;49.922;7.966;2023-08-30T04:44:29;99132.66;;;13.60;100.00
70133;BME280;57495;49.922;7.966;2023-08-30T04:46:32;99136.41;;;13.36;100.00
70133;BME280;57495;49.922;7.966;2023-08-30T04:48:33;99134.03;;;13.41;100.00
70133;BME280;57495;49.922;7.966;2023-08-30T04:50:35;99132.56;;;13.39;100.00
70133;BME280;57495;49.922;7.966;2023-08-30T04:52:36;99123.13;;;13.58;100.00
70133;BME280;57495;49.922;7.966;2023-08-30T04:54:37;99130.16;;;13.73;100.00
70133;BME280;57495;49.922;7.966;2023-08-30T04:56:39;99132.41;;;13.70;100.00
70133;BME280;57495;49.922;7.966;2023-08-30T04:58:42;99140.06;;;13.73;100.00
70133;BME280;57495;49.922;7.966;2023-08-30T05:00:43;99133.97;;;13.79;100.00
70133;BME280;57495;49.922;7.966;2023-08-30T05:02:44;99137.84;;;13.77;100.00
70133;BME280;57495;49.922;7.966;2023-08-30T05:04:46;99130.41;;;13.79;100.00
70133;BME280;57495;49.922;7.966;2023-08-30T05:06:48;99119.25;;;13.75;100.00
70133;BME280;57495;49.922;7.966;2023-08-30T05:08:49;99127.09;;;13.77;100.00
70133;BME280;57495;49.922;7.966;2023-08-30T05:10:53;99122.09;;;14.03;100.00
70133;BME280;57495;49.922;7.966;2023-08-30T05:12:54;99120.56;;;14.16;100.00
70133;BME280;57495;49.922;7.966;2023-08-30T05:14:57;99126.78;;;14.16;100.00
70133;BME280;57495;49.922;7.966;2023-08-30T05:16:59;99119.81;;;14.22;100.00
70133;BME280;57495;49.922;7.966;2023-08-30T05:19:00;99126.13;;;14.29;100.00
70133;BME280;57495;49.922;7.966;2023-08-30T05:21:04;99130.78;;;14.20;100.00
70133;BME280;57495;49.922;7.966;2023-08-30T05:23:05;99129.53;;;14.23;100.00
70133;BME280;57495;49.922;7.966;2023-08-30T05:25:06;99128.03;;;14.35;100.00
70133;BME280;57495;49.922;7.966;2023-08-30T05:27:07;99127.25;;;14.20;100.00
70133;BME280;57495;49.922;7.966;2023-08-30T05:29:09;99124.13;;;14.01;100.00
70133;BME280;57495;49.922;7.966;2023-08-30T05:31:12;99119.56;;;14.02;100.00
70133;BME280;57495;49.922;7.966;2023-08-30T05:33:13;99114.81;;;14.19;100.00
70133;BME280;57495;49.922;7.966;2023-08-30T05:35:15;99121.88;;;14.20;100.00
70133;BME280;57495;49.922;7.966;2023-08-30T05:37:16;99120.81;;;13.99;100.00
70133;BME280;57495;49.922;7.966;2023-08-30T05:39:17;99119.13;;;13.98;100.00
70133;BME280;57495;49.922;7.966;2023-08-30T05:41:18;99126.59;;;14.03;100.00
70133;BME280;57495;49.922;7.966;2023-08-30T05:43:19;99120.97;;;14.13;100.00
70133;BME280;57495;49.922;7.966;2023-08-30T05:45:21;99115.28;;;14.22;100.00
70133;BME280;57495;49.922;7.966;2023-08-30T05:47:23;99119.97;;;14.35;100.00
70133;BME280;57495;49.922;7.966;2023-08-30T05:49:25;99115.72;;;14.26;100.00
70133;BME280;57495;49.922;7.966;2023-08-30T05:51:26;99114.44;;;14.22;100.00
70133;BME280;57495;49.922;7.966;2023-08-30T05:53:27;99118.41;;;14.26;100.00
70133;BME280;57495;49.922;7.966;2023-08-30T05:55:29;99125.94;;;14.16;100.00
70133;BME280;57495;49.922;7.966;2023-08-30T05:57:30;99129.47;;;14.16;100.00
70133;BME280;57495;49.922;7.966;2023-08-30T05:59:33;99121.13;;;14.26;100.00
70133;BME280;57495;49.922;7.966;2023-08-30T06:01:35;99129.31;;;14.39;100.00
70133;BME280;57495;49.922;7.966;2023-08-30T06:03:38;99130.09;;;14.55;100.00
70133;BME280;57495;49.922;7.966;2023-08-30T06:05:40;99134.38;;;14.64;100.00
70133;BME280;57495;49.922;7.966;2023-08-30T06:07:41;99136.59;;;14.75;100.00
70133;BME280;57495;49.922;7.966;2023-08-30T06:09:42;99131.66;;;14.79;100.00
70133;BME280;57495;49.922;7.966;2023-08-30T06:11:44;99139.13;;;14.83;100.00
70133;BME280;57495;49.922;7.966;2023-08-30T06:13:45;99141.66;;;14.85;100.00
70133;BME280;57495;49.922;7.966;2023-08-30T06:15:50;99142.91;;;14.89;100.00
70133;BME280;57495;49.922;7.966;2023-08-30T06:17:51;99136.97;;;14.94;100.00
70133;BME280;57495;49.922;7.966;2023-08-30T06:19:55;99144.25;;;15.00;100.00
70133;BME280;57495;49.922;7.966;2023-08-30T06:21:56;99140.03;;;14.91;100.00
70133;BME280;57495;49.922;7.966;2023-08-30T06:23:58;99140.94;;;14.98;100.00
70133;BME280;57495;49.922;7.966;2023-08-30T06:25:59;99137.28;;;15.05;100.00
70133;BME280;57495;49.922;7.966;2023-08-30T06:28:01;99133.97;;;15.10;100.00
70133;BME280;57495;49.922;7.966;2023-08-30T06:30:04;99133.97;;;15.10;100.00
70133;BME280;57495;49.922;7.966;2023-08-30T06:32:06;99130.66;;;15.08;100.00
70133;BME280;57495;49.922;7.966;2023-08-30T06:34:07;99121.75;;;15.07;100.00
70133;BME280;57495;49.922;7.966;2023-08-30T06:36:10;99128.19;;;15.06;100.00
70133;BME280;57495;49.922;7.966;2023-08-30T06:38:11;99132.97;;;14.89;100.00
70133;BME280;57495;49.922;7.966;2023-08-30T06:40:13;99132.59;;;14.93;100.00
70133;BME280;57495;49.922;7.966;2023-08-30T06:42:13;99131.81;;;14.99;100.00
70133;BME280;57495;49.922;7.966;2023-08-30T06:44:15;99125.41;;;15.21;100.00
70133;BME280;57495;49.922;7.966;2023-08-30T06:46:17;99127.97;;;15.08;100.00
70133;BME280;57495;49.922;7.966;2023-08-30T06:48:18;99130.88;;;15.35;100.00
70133;BME280;57495;49.922;7.966;2023-08-30T06:50:20;99134.59;;;15.34;100.00
70133;BME280;57495;49.922;7.966;2023-08-30T06:52:23;99137.53;;;15.39;100.00
70133;BME280;57495;49.922;7.966;2023-08-30T06:54:24;99128.81;;;15.37;100.00
70133;BME280;57495;49.922;7.966;2023-08-30T06:56:26;99130.16;;;15.48;100.00
70133;BME280;57495;49.922;7.966;2023-08-30T06:58:27;99123.34;;;15.23;100.00
70133;BME280;57495;49.922;7.966;2023-08-30T07:00:28;99119.16;;;15.21;100.00
70133;BME280;57495;49.922;7.966;2023-08-30T07:02:30;99121.22;;;15.19;100.00
70133;BME280;57495;49.922;7.966;2023-08-30T07:04:31;99126.59;;;15.19;100.00
70133;BME280;57495;49.922;7.966;2023-08-30T07:06:32;99121.75;;;15.36;100.00
70133;BME280;57495;49.922;7.966;2023-08-30T07:08:34;99119.81;;;15.51;100.00
70133;BME280;57495;49.922;7.966;2023-08-30T07:10:36;99119.44;;;15.61;100.00
70133;BME280;57495;49.922;7.966;2023-08-30T07:12:37;99119.88;;;15.64;100.00
70133;BME280;57495;49.922;7.966;2023-08-30T07:14:38;99120.75;;;15.43;100.00
70133;BME280;57495;49.922;7.966;2023-08-30T07:16:39;99119.91;;;15.71;100.00
70133;BME280;57495;49.922;7.966;2023-08-30T07:18:41;99114.25;;;15.59;100.00
70133;BME280;57495;49.922;7.966;2023-08-30T07:20:42;99116.88;;;15.46;100.00
70133;BME280;57495;49.922;7.966;2023-08-30T07:22:44;99117.66;;;15.40;100.00
70133;BME280;57495;49.922;7.966;2023-08-30T07:24:47;99105.47;;;15.44;100.00
70133;BME280;57495;49.922;7.966;2023-08-30T07:26:48;99105.88;;;15.76;100.00
70133;BME280;57495;49.922;7.966;2023-08-30T07:28:49;99114.66;;;15.84;100.00
70133;BME280;57495;49.922;7.966;2023-08-30T07:30:50;99111.13;;;15.91;100.00
70133;BME280;57495;49.922;7.966;2023-08-30T07:32:52;99120.53;;;15.66;100.00
70133;BME280;57495;49.922;7.966;2023-08-30T07:34:53;99112.88;;;15.70;100.00
70133;BME280;57495;49.922;7.966;2023-08-30T07:36:54;99117.72;;;15.81;100.00
70133;BME280;57495;49.922;7.966;2023-08-30T07:38:56;99124.31;;;15.44;100.00
70133;BME280;57495;49.922;7.966;2023-08-30T07:40:59;99123.28;;;15.45;100.00
70133;BME280;57495;49.922;7.966;2023-08-30T07:43:00;99114.72;;;15.35;100.00
70133;BME280;57495;49.922;7.966;2023-08-30T07:45:03;99124.31;;;15.44;100.00
70133;BME280;57495;49.922;7.966;2023-08-30T07:47:05;99127.53;;;15.61;100.00
70133;BME280;57495;49.922;7.966;2023-08-30T07:49:06;99124.41;;;15.57;100.00
70133;BME280;57495;49.922;7.966;2023-08-30T07:51:08;99124.44;;;15.36;100.00
70133;BME280;57495;49.922;7.966;2023-08-30T07:53:09;99128.00;;;15.36;100.00
70133;BME280;57495;49.922;7.966;2023-08-30T07:55:10;99121.88;;;15.49;100.00
70133;BME280;57495;49.922;7.966;2023-08-30T07:57:13;99126.53;;;15.69;100.00
70133;BME280;57495;49.922;7.966;2023-08-30T07:59:15;99123.19;;;15.95;100.00
70133;BME280;57495;49.922;7.966;2023-08-30T08:01:16;99125.97;;;16.15;100.00
70133;BME280;57495;49.922;7.966;2023-08-30T08:03:18;99121.59;;;16.14;100.00
70133;BME280;57495;49.922;7.966;2023-08-30T08:05:19;99120.66;;;16.35;100.00
70133;BME280;57495;49.922;7.966;2023-08-30T08:07:21;99122.72;;;16.33;100.00
70133;BME280;57495;49.922;7.966;2023-08-30T08:09:22;99122.69;;;16.26;100.00
70133;BME280;57495;49.922;7.966;2023-08-30T08:11:25;99115.06;;;16.36;100.00
70133;BME280;57495;49.922;7.966;2023-08-30T08:13:28;99119.00;;;16.40;100.00
70133;BME280;57495;49.922;7.966;2023-08-30T08:15:30;99126.66;;;16.30;100.00
70133;BME280;57495;49.922;7.966;2023-08-30T08:17:32;99121.75;;;16.54;100.00
70133;BME280;57495;49.922;7.966;2023-08-30T08:19:34;99129.69;;;16.14;100.00
70133;BME280;57495;49.922;7.966;2023-08-30T08:21:39;99124.09;;;16.09;100.00
70133;BME280;57495;49.922;7.966;2023-08-30T08:23:40;99123.03;;;16.03;100.00
70133;BME280;57495;49.922;7.966;2023-08-30T08:25:41;99116.09;;;16.35;100.00
70133;BME280;57495;49.922;7.966;2023-08-30T08:27:43;99124.38;;;16.34;100.00
70133;BME280;57495;49.922;7.966;2023-08-30T08:29:46;99115.31;;;16.55;100.00
70133;BME280;57495;49.922;7.966;2023-08-30T08:31:47;99117.81;;;16.63;100.00
70133;BME280;57495;49.922;7.966;2023-08-30T08:33:51;99120.53;;;16.63;100.00
70133;BME280;57495;49.922;7.966;2023-08-30T08:35:52;99123.88;;;16.78;100.00
70133;BME280;57495;49.922;7.966;2023-08-30T08:37:54;99124.88;;;16.71;100.00
70133;BME280;57495;49.922;7.966;2023-08-30T08:39:55;99122.47;;;17.09;100.00
70133;BME280;57495;49.922;7.966;2023-08-30T08:41:59;99131.84;;;17.07;100.00
70133;BME280;57495;49.922;7.966;2023-08-30T08:44:00;99131.19;;;16.85;100.00
70133;BME280;57495;49.922;7.966;2023-08-30T08:46:04;99122.03;;;16.86;100.00
70133;BME280;57495;49.922;7.966;2023-08-30T08:48:07;99127.06;;;17.22;100.00
70133;BME280;57495;49.922;7.966;2023-08-30T08:50:09;99120.81;;;17.15;100.00
70133;BME280;57495;49.922;7.966;2023-08-30T08:52:11;99128.50;;;17.11;100.00
70133;BME280;57495;49.922;7.966;2023-08-30T08:54:13;99127.88;;;17.36;100.00
70133;BME280;57495;49.922;7.966;2023-08-30T08:56:15;99124.94;;;17.57;100.00
70133;BME280;57495;49.922;7.966;2023-08-30T08:58:17;99128.25;;;17.59;100.00
70133;BME280;57495;49.922;7.966;2023-08-30T09:00:19;99128.69;;;17.56;100.00
70133;BME280;57495;49.922;7.966;2023-08-30T09:02:21;99122.59;;;17.81;100.00
70133;BME280;57495;49.922;7.966;2023-08-30T09:04:23;99111.78;;;17.74;100.00
70133;BME280;57495;49.922;7.966;2023-08-30T09:06:25;99100.88;;;18.08;100.00
70133;BME280;57495;49.922;7.966;2023-08-30T09:08:26;99111.59;;;17.76;100.00
70133;BME280;57495;49.922;7.966;2023-08-30T09:10:27;99105.75;;;17.79;99.37
70133;BME280;57495;49.922;7.966;2023-08-30T09:12:32;99102.16;;;18.12;99.58
70133;BME280;57495;49.922;7.966;2023-08-30T09:14:32;99092.94;;;18.20;100.00
70133;BME280;57495;49.922;7.966;2023-08-30T09:16:34;99098.06;;;18.34;100.00
70133;BME280;57495;49.922;7.966;2023-08-30T09:18:36;99092.56;;;18.80;97.28
70133;BME280;57495;49.922;7.966;2023-08-30T09:20:38;99089.34;;;18.32;95.44
70133;BME280;57495;49.922;7.966;2023-08-30T09:22:40;99090.50;;;18.43;98.90
70133;BME280;57495;49.922;7.966;2023-08-30T09:24:42;99090.47;;;18.57;96.05
70133;BME280;57495;49.922;7.966;2023-08-30T09:26:47;99093.19;;;18.50;96.60
70133;BME280;57495;49.922;7.966;2023-08-30T09:28:48;99092.84;;;18.71;95.61
70133;BME280;57495;49.922;7.966;2023-08-30T09:30:50;99092.34;;;19.13;94.03
70133;BME280;57495;49.922;7.966;2023-08-30T09:32:52;99097.22;;;19.04;93.70
70133;BME280;57495;49.922;7.966;2023-08-30T09:34:55;99081.22;;;19.65;89.24
70133;BME280;57495;49.922;7.966;2023-08-30T09:36:56;99086.34;;;19.55;91.44
70133;BME280;57495;49.922;7.966;2023-08-30T09:39:03;99083.19;;;20.13;91.93
70133;BME280;57495;49.922;7.966;2023-08-30T09:41:05;99076.34;;;19.74;86.23
70133;BME280;57495;49.922;7.966;2023-08-30T09:43:07;99068.56;;;19.59;88.09
70133;BME280;57495;49.922;7.966;2023-08-30T09:45:17;99079.78;;;19.44;88.69
70133;BME280;57495;49.922;7.966;2023-08-30T09:47:19;99062.97;;;19.54;86.42
70133;BME280;57495;49.922;7.966;2023-08-30T09:49:21;99061.88;;;19.98;85.79
70133;BME280;57495;49.922;7.966;2023-08-30T09:51:25;99059.97;;;19.80;84.03
70133;BME280;57495;49.922;7.966;2023-08-30T09:53:29;99057.22;;;20.17;83.45
70133;BME280;57495;49.922;7.966;2023-08-30T09:55:33;99059.38;;;19.97;81.50
70133;BME280;57495;49.922;7.966;2023-08-30T09:57:34;99065.00;;;20.32;83.40
70133;BME280;57495;49.922;7.966;2023-08-30T09:59:36;99056.59;;;20.34;85.05
70133;BME280;57495;49.922;7.966;2023-08-30T10:01:38;99059.91;;;20.36;87.45
70133;BME280;57495;49.922;7.966;2023-08-30T10:03:40;99059.97;;;19.80;82.14
70133;BME280;57495;49.922;7.966;2023-08-30T10:05:42;99053.09;;;19.41;84.36
70133;BME280;57495;49.922;7.966;2023-08-30T10:07:45;99045.81;;;19.97;84.06
70133;BME280;57495;49.922;7.966;2023-08-30T10:09:50;99050.66;;;19.76;84.00
70133;BME280;57495;49.922;7.966;2023-08-30T10:11:53;99048.59;;;19.53;83.38
70133;BME280;57495;49.922;7.966;2023-08-30T10:13:55;99044.41;;;19.32;82.94
70133;BME280;57495;49.922;7.966;2023-08-30T10:16:00;99045.53;;;19.86;81.36
70133;BME280;57495;49.922;7.966;2023-08-30T10:18:04;99037.53;;;20.22;78.47
70133;BME280;57495;49.922;7.966;2023-08-30T10:20:08;99040.09;;;19.86;77.53
70133;BME280;57495;49.922;7.966;2023-08-30T10:22:09;99033.78;;;20.23;79.15
70133;BME280;57495;49.922;7.966;2023-08-30T10:24:19;99033.09;;;20.39;75.43
70133;BME280;57495;49.922;7.966;2023-08-30T10:26:22;99033.72;;;20.11;75.25
70133;BME280;57495;49.922;7.966;2023-08-30T10:28:26;99037.53;;;20.22;75.41
70133;BME280;57495;49.922;7.966;2023-08-30T10:30:29;99035.09;;;20.62;76.40
70133;BME280;57495;49.922;7.966;2023-08-30T10:32:30;99032.19;;;20.45;75.71
70133;BME280;57495;49.922;7.966;2023-08-30T10:34:33;99022.97;;;20.77;75.44
70133;BME280;57495;49.922;7.966;2023-08-30T10:36:35;99026.75;;;20.99;73.14
70133;BME280;57495;49.922;7.966;2023-08-30T10:38:36;99030.41;;;20.70;76.26